sensor_id;sensor_type;location;lat;lon;timestamp;pressure;altitude;pressure_sealevel;temperature;humidity
38558;BME280;24333;42.626;23.308;2023-03-31T02:17:06;92106.81;;;7.01;94.83
38558;BME280;24333;42.626;23.308;2023-03-31T02:19:39;92118.84;;;7.20;94.92
38558;BME280;24333;42.626;23.308;2023-03-31T02:22:18;92131.97;;;7.18;99.86
38558;BME280;24333;42.626;23.308;2023-03-31T02:24:49;92109.16;;;6.83;95.82
38558;BME280;24333;42.626;23.308;2023-03-31T02:27:56;92140.19;;;6.86;98.45
38558;BME280;24333;42.626;23.308;2023-03-31T02:30:29;92126.28;;;6.87;100.00
38558;BME280;24333;42.626;23.308;2023-03-31T02:43:33;92104.16;;;6.33;100.00
38558;BME280;24333;42.626;23.308;2023-03-31T02:46:29;92125.22;;;6.40;100.00
38558;BME280;24333;42.626;23.308;2023-03-31T02:49:18;92098.06;;;6.04;100.00
38558;BME280;24333;42.626;23.308;2023-03-31T03:14:22;92093.75;;;5.87;100.00
38558;BME280;24333;42.626;23.308;2023-03-31T03:17:06;92079.50;;;5.74;100.00
38558;BME280;24333;42.626;23.308;2023-03-31T03:19:33;92070.19;;;5.72;100.00
38558;BME280;24333;42.626;23.308;2023-03-31T03:21:59;92071.06;;;5.76;100.00
38558;BME280;24333;42.626;23.308;2023-03-31T03:24:25;92092.16;;;5.86;100.00
38558;BME280;24333;42.626;23.308;2023-03-31T03:56:43;92048.72;;;6.63;100.00
38558;BME280;24333;42.626;23.308;2023-03-31T03:59:10;92062.06;;;6.72;100.00
38558;BME280;24333;42.626;23.308;2023-03-31T04:01:36;92053.78;;;6.64;100.00
38558;BME280;24333;42.626;23.308;2023-03-31T04:04:02;92069.47;;;6.75;100.00
38558;BME280;24333;42.626;23.308;2023-03-31T04:06:33;92063.63;;;6.73;100.00
38558;BME280;24333;42.626;23.308;2023-03-31T04:09:05;92078.00;;;6.73;100.00
38558;BME280;24333;42.626;23.308;2023-03-31T04:11:52;92100.72;;;6.88;100.00
38558;BME280;24333;42.626;23.308;2023-03-31T04:14:23;92087.75;;;6.78;100.00
38558;BME280;24333;42.626;23.308;2023-03-31T04:16:50;92093.75;;;6.87;100.00
38558;BME280;24333;42.626;23.308;2023-03-31T04:19:16;92089.13;;;6.88;100.00
38558;BME280;24333;42.626;23.308;2023-03-31T04:25:38;92092.19;;;6.86;100.00
38558;BME280;24333;42.626;23.308;2023-03-31T04:28:10;92064.34;;;6.70;100.00
38558;BME280;24333;42.626;23.308;2023-03-31T04:30:39;92078.75;;;6.74;100.00
38558;BME280;24333;42.626;23.308;2023-03-31T04:33:17;92081.97;;;6.79;100.00
38558;BME280;24333;42.626;23.308;2023-03-31T04:35:43;92065.78;;;6.63;100.00
38558;BME280;24333;42.626;23.308;2023-03-31T04:38:21;92072.28;;;6.78;100.00
38558;BME280;24333;42.626;23.308;2023-03-31T04:43:52;92038.78;;;6.51;100.00
38558;BME280;24333;42.626;23.308;2023-03-31T04:46:18;92043.84;;;6.53;100.00
38558;BME280;24333;42.626;23.308;2023-03-31T04:59:06;92054.03;;;6.75;100.00
38558;BME280;24333;42.626;23.308;2023-03-31T05:01:48;92054.22;;;6.86;100.00
38558;BME280;24333;42.626;23.308;2023-03-31T05:07:07;92043.13;;;7.11;100.00
38558;BME280;24333;42.626;23.308;2023-03-31T05:10:10;92045.53;;;7.36;100.00
38558;BME280;24333;42.626;23.308;2023-03-31T05:12:41;92035.25;;;7.45;100.00
38558;BME280;24333;42.626;23.308;2023-03-31T05:31:03;92016.88;;;7.58;100.00
38558;BME280;24333;42.626;23.308;2023-03-31T05:44:04;92031.88;;;7.52;100.00
38558;BME280;24333;42.626;23.308;2023-03-31T05:46:53;92048.38;;;7.63;100.00
38558;BME280;24333;42.626;23.308;2023-03-31T05:56:35;92035.75;;;7.74;100.00
38558;BME280;24333;42.626;23.308;2023-03-31T05:59:01;92016.47;;;7.79;100.00
38558;BME280;24333;42.626;23.308;2023-03-31T06:01:52;92034.59;;;7.99;100.00
38558;BME280;24333;42.626;23.308;2023-03-31T06:27:36;92031.84;;;9.37;83.12
38558;BME280;24333;42.626;23.308;2023-03-31T06:30:31;92038.38;;;9.63;76.65
38558;BME280;24333;42.626;23.308;2023-03-31T06:33:07;92033.78;;;9.71;74.76
38558;BME280;24333;42.626;23.308;2023-03-31T06:35:39;92039.94;;;9.64;73.62
38558;BME280;24333;42.626;23.308;2023-03-31T07:26:35;91983.59;;;10.73;72.36
38558;BME280;24333;42.626;23.308;2023-03-31T08:52:30;91956.13;;;13.10;47.28
38558;BME280;24333;42.626;23.308;2023-03-31T08:55:21;91960.78;;;13.13;49.66
38558;BME280;24333;42.626;23.308;2023-03-31T09:16:06;91927.84;;;13.35;50.41
38558;BME280;24333;42.626;23.308;2023-03-31T09:18:39;91902.00;;;13.39;48.83
38558;BME280;24333;42.626;23.308;2023-03-31T09:29:48;91926.66;;;14.03;47.22
38558;BME280;24333;42.626;23.308;2023-03-31T09:32:20;91925.25;;;13.84;46.76
38558;BME280;24333;42.626;23.308;2023-03-31T09:34:51;91912.72;;;13.79;47.48
38558;BME280;24333;42.626;23.308;2023-03-31T09:37:38;91935.50;;;14.22;46.23
38558;BME280;24333;42.626;23.308;2023-03-31T09:40:55;91925.25;;;14.29;46.54
38558;BME280;24333;42.626;23.308;2023-03-31T09:43:47;91943.78;;;14.14;45.81
38558;BME280;24333;42.626;23.308;2023-03-31T09:46:30;91926.75;;;13.88;46.92
38558;BME280;24333;42.626;23.308;2023-03-31T09:49:11;91915.09;;;13.81;46.55
38558;BME280;24333;42.626;23.308;2023-03-31T14:40:15;91573.69;;;15.41;46.08
38558;BME280;24333;42.626;23.308;2023-03-31T14:42:42;91574.31;;;15.49;47.46
38558;BME280;24333;42.626;23.308;2023-03-31T14:45:24;91562.69;;;14.97;46.49
38558;BME280;24333;42.626;23.308;2023-03-31T14:47:57;91568.53;;;14.75;46.79
38558;BME280;24333;42.626;23.308;2023-03-31T14:50:49;91562.03;;;14.89;48.16
38558;BME280;24333;42.626;23.308;2023-03-31T14:53:18;91557.88;;;15.05;46.67
38558;BME280;24333;42.626;23.308;2023-03-31T14:56:07;91551.81;;;15.13;46.50
38558;BME280;24333;42.626;23.308;2023-03-31T17:03:09;91505.31;;;10.12;78.69
38558;BME280;24333;42.626;23.308;2023-03-31T17:05:41;91499.47;;;10.06;82.06
38558;BME280;24333;42.626;23.308;2023-03-31T17:08:12;91499.06;;;9.97;83.31
38558;BME280;24333;42.626;23.308;2023-03-31T17:10:38;91495.56;;;9.89;83.86
38558;BME280;24333;42.626;23.308;2023-03-31T17:13:07;91500.63;;;9.80;82.09
38558;BME280;24333;42.626;23.308;2023-03-31T17:15:34;91511.91;;;9.75;82.70
38558;BME280;24333;42.626;23.308;2023-03-31T17:18:14;91509.53;;;9.66;85.05
38558;BME280;24333;42.626;23.308;2023-03-31T17:20:41;91501.75;;;9.61;86.57
38558;BME280;24333;42.626;23.308;2023-03-31T17:23:08;91518.50;;;9.66;86.39
38558;BME280;24333;42.626;23.308;2023-03-31T17:25:33;91508.75;;;9.54;84.15
38558;BME280;24333;42.626;23.308;2023-03-31T17:28:01;91500.56;;;9.51;83.29
38558;BME280;24333;42.626;23.308;2023-03-31T17:30:27;91509.53;;;9.51;81.29
38558;BME280;24333;42.626;23.308;2023-03-31T17:32:52;91505.63;;;9.45;79.22
38558;BME280;24333;42.626;23.308;2023-03-31T17:35:19;91504.84;;;9.41;79.00
38558;BME280;24333;42.626;23.308;2023-03-31T17:37:49;91506.38;;;9.46;79.47
38558;BME280;24333;42.626;23.308;2023-03-31T17:40:18;91492.00;;;9.45;81.71
38558;BME280;24333;42.626;23.308;2023-03-31T17:42:44;91492.00;;;9.38;78.51
38558;BME280;24333;42.626;23.308;2023-03-31T17:45:09;91493.16;;;9.40;78.75
38558;BME280;24333;42.626;23.308;2023-03-31T17:47:58;91500.94;;;9.46;77.47
38558;BME280;24333;42.626;23.308;2023-03-31T17:50:25;91487.31;;;9.31;76.67
38558;BME280;24333;42.626;23.308;2023-03-31T17:52:53;91499.00;;;9.43;74.69
38558;BME280;24333;42.626;23.308;2023-03-31T17:55:19;91488.09;;;9.35;71.46
38558;BME280;24333;42.626;23.308;2023-03-31T17:58:19;91500.97;;;9.49;73.38
38558;BME280;24333;42.626;23.308;2023-03-31T19:22:53;91467.56;;;10.25;58.07
38558;BME280;24333;42.626;23.308;2023-03-31T19:25:20;91465.59;;;10.36;57.30
38558;BME280;24333;42.626;23.308;2023-03-31T19:27:46;91462.88;;;10.47;55.36
38558;BME280;24333;42.626;23.308;2023-03-31T19:30:28;91458.97;;;10.59;55.70
38558;BME280;24333;42.626;23.308;2023-03-31T19:32:58;91451.56;;;10.63;57.31
38558;BME280;24333;42.626;23.308;2023-03-31T19:35:46;91458.13;;;10.77;54.70
38558;BME280;24333;42.626;23.308;2023-03-31T19:38:36;91446.44;;;10.83;52.84
38558;BME280;24333;42.626;23.308;2023-03-31T19:51:53;91472.91;;;10.90;55.73
38558;BME280;24333;42.626;23.308;2023-03-31T19:54:21;91463.19;;;10.78;58.53
38558;BME280;24333;42.626;23.308;2023-03-31T20:02:11;91444.53;;;10.59;63.32
38558;BME280;24333;42.626;23.308;2023-03-31T20:04:41;91450.03;;;10.55;63.06
38558;BME280;24333;42.626;23.308;2023-03-31T20:13:00;91441.88;;;10.22;65.22
38558;BME280;24333;42.626;23.308;2023-03-31T20:26:20;91445.81;;;9.92;67.14
38558;BME280;24333;42.626;23.308;2023-03-31T20:28:53;91455.91;;;9.92;72.51
38558;BME280;24333;42.626;23.308;2023-03-31T20:31:27;91455.13;;;9.84;72.07
38558;BME280;24333;42.626;23.308;2023-03-31T20:34:27;91458.63;;;9.81;73.68
38558;BME280;24333;42.626;23.308;2023-03-31T20:37:08;91460.53;;;9.66;72.99
38558;BME280;24333;42.626;23.308;2023-03-31T20:55:45;91438.75;;;9.44;73.96
38558;BME280;24333;42.626;23.308;2023-03-31T20:58:11;91440.31;;;9.38;76.09
38558;BME280;24333;42.626;23.308;2023-03-31T21:00:36;91450.78;;;9.36;75.16
38558;BME280;24333;42.626;23.308;2023-03-31T21:03:08;91413.44;;;9.18;73.74
38558;BME280;24333;42.626;23.308;2023-03-31T21:05:44;91415.41;;;9.21;74.39
38558;BME280;24333;42.626;23.308;2023-03-31T21:08:10;91425.91;;;9.34;74.48
38558;BME280;24333;42.626;23.308;2023-03-31T23:44:16;91350.47;;;12.12;50.24
